Time;durP1;ratioP1;P1;durP2;ratioP2;P2;SDS_P1;SDS_P2;PMS_P1;PMS_P2;Temp;Humidity;BMP_temperature;BMP_pressure;BME280_temperature;BME280_humidity;BME280_pressure;Samples;Min_cycle;Max_cycle;Signal;HPM_P1;HPM_P2
2024/02/10 00:01:44;;;;;;;15.03;11.23;;;10.40;99.90;;;;;;5116952;28;20466;-64
2024/02/10 00:04:14;;;;;;;16.40;11.50;;;10.40;99.90;;;;;;5115950;28;20966;-64
2024/02/10 00:06:42;;;;;;;14.53;10.53;;;10.30;99.90;;;;;;5116329;28;20506;-65
2024/02/10 00:09:10;;;;;;;10.67;8.77;;;10.30;99.90;;;;;;5116670;28;20486;-64
2024/02/10 00:11:38;;;;;;;13.30;9.07;;;10.30;99.90;;;;;;5116825;28;20487;-64
2024/02/10 00:14:06;;;;;;;10.90;9.20;;;10.30;99.90;;;;;;5116139;28;20459;-63
2024/02/10 00:16:35;;;;;;;11.43;9.43;;;10.30;99.90;;;;;;5115691;28;20637;-64
2024/02/10 00:19:08;;;;;;;12.77;8.70;;;10.30;99.90;;;;;;5116296;28;20455;-64
2024/02/10 00:21:36;;;;;;;11.30;8.70;;;10.30;99.90;;;;;;5116525;28;20884;-64
2024/02/10 00:24:04;;;;;;;9.67;7.70;;;10.30;99.90;;;;;;5116031;28;20463;-64
2024/02/10 00:26:32;;;;;;;13.33;9.17;;;10.30;99.90;;;;;;5116310;28;20660;-63
2024/02/10 00:29:01;;;;;;;10.87;9.40;;;10.30;99.90;;;;;;5116271;28;20451;-63
2024/02/10 00:31:29;;;;;;;9.67;7.50;;;10.30;99.90;;;;;;5116198;28;20434;-63
2024/02/10 00:34:00;;;;;;;9.97;7.17;;;10.30;99.90;;;;;;5116058;28;20490;-62
2024/02/10 00:36:30;;;;;;;9.20;8.20;;;10.30;99.90;;;;;;5116323;28;20491;-62
2024/02/10 00:38:57;;;;;;;8.50;6.70;;;10.20;99.90;;;;;;5116391;28;20772;-62
2024/02/10 00:41:25;;;;;;;12.23;9.30;;;10.20;99.90;;;;;;5116559;28;20868;-62
2024/02/10 00:43:53;;;;;;;12.70;9.80;;;10.20;99.90;;;;;;5115620;28;20466;-63
2024/02/10 00:46:21;;;;;;;12.50;8.47;;;10.30;99.90;;;;;;5115996;28;20430;-63
2024/02/10 00:48:53;;;;;;;12.30;8.30;;;10.20;99.90;;;;;;5116253;28;20549;-63
2024/02/10 00:51:22;;;;;;;9.63;8.63;;;10.30;99.90;;;;;;5118973;28;20508;-62
2024/02/10 00:53:53;;;;;;;7.40;6.50;;;10.20;99.90;;;;;;5119630;28;20451;-62
2024/02/10 00:56:20;;;;;;;8.80;7.43;;;10.20;99.90;;;;;;5119332;28;20497;-62
2024/02/10 00:58:50;;;;;;;8.13;6.33;;;10.30;99.90;;;;;;5119775;27;20779;-62
2024/02/10 01:01:20;;;;;;;11.10;9.40;;;10.20;99.90;;;;;;5119629;28;20498;-63
2024/02/10 01:03:48;;;;;;;10.73;9.53;;;10.20;99.90;;;;;;5120020;28;20887;-62
2024/02/10 01:06:16;;;;;;;7.57;6.83;;;10.20;99.90;;;;;;5119470;28;20915;-63
2024/02/10 01:08:48;;;;;;;6.20;5.43;;;10.20;99.90;;;;;;5120108;28;20788;-63
2024/02/10 01:11:16;;;;;;;7.13;6.00;;;10.20;99.90;;;;;;5120718;28;20460;-63
2024/02/10 01:13:45;;;;;;;6.40;5.00;;;10.20;99.90;;;;;;5120631;28;20455;-65
2024/02/10 01:16:15;;;;;;;8.30;5.80;;;10.20;99.90;;;;;;5119791;28;20487;-65
2024/02/10 01:18:43;;;;;;;7.30;5.23;;;10.20;99.90;;;;;;5119958;28;20487;-66
2024/02/10 01:21:10;;;;;;;9.07;6.80;;;10.20;99.90;;;;;;5120390;28;20864;-66
2024/02/10 01:23:39;;;;;;;10.07;5.80;;;10.20;99.90;;;;;;5120290;28;20495;-65
2024/02/10 01:26:08;;;;;;;7.63;5.27;;;10.20;99.90;;;;;;5119820;28;20528;-64
2024/02/10 01:28:36;;;;;;;6.37;5.20;;;10.20;99.90;;;;;;5119973;28;20546;-65
2024/02/10 01:31:06;;;;;;;6.60;5.57;;;10.20;99.90;;;;;;5119918;28;20919;-63
2024/02/10 01:33:33;;;;;;;7.13;5.40;;;10.20;99.90;;;;;;5120133;28;20459;-66
2024/02/10 01:36:03;;;;;;;5.80;5.13;;;10.10;99.90;;;;;;5119390;28;20808;-65
2024/02/10 01:38:30;;;;;;;6.90;5.43;;;10.10;99.90;;;;;;5119454;28;20567;-63
2024/02/10 01:40:58;;;;;;;7.27;5.27;;;10.20;99.90;;;;;;5119587;28;20459;-62
2024/02/10 01:43:26;;;;;;;6.77;5.20;;;10.20;99.90;;;;;;5119903;28;20460;-63
2024/02/10 01:45:55;;;;;;;6.30;5.70;;;10.20;99.90;;;;;;5119116;28;20451;-63
2024/02/10 01:48:23;;;;;;;7.23;4.80;;;10.10;99.90;;;;;;5119566;28;20487;-63
2024/02/10 01:50:50;;;;;;;6.47;5.47;;;10.10;99.90;;;;;;5119621;28;20563;-64
2024/02/10 01:53:18;;;;;;;4.93;4.40;;;10.10;99.90;;;;;;5119861;28;20452;-63
2024/02/10 01:55:46;;;;;;;6.90;5.70;;;10.10;99.90;;;;;;5119673;28;20582;-61
2024/02/10 01:58:15;;;;;;;6.50;5.80;;;10.00;99.90;;;;;;5119287;28;20460;-62
2024/02/10 02:00:44;;;;;;;4.67;4.17;;;10.00;99.90;;;;;;5119170;28;20831;-62
2024/02/10 02:03:12;;;;;;;5.80;4.13;;;10.10;99.90;;;;;;5119174;28;20941;-62
2024/02/10 02:05:39;;;;;;;5.27;4.63;;;10.00;99.90;;;;;;5119277;28;20508;-62
2024/02/10 02:08:07;;;;;;;5.40;4.90;;;10.00;99.90;;;;;;5119073;28;20456;-62
2024/02/10 02:10:35;;;;;;;9.00;5.83;;;10.00;99.90;;;;;;5119172;28;20516;-62
2024/02/10 02:13:03;;;;;;;5.90;5.23;;;10.00;99.90;;;;;;5119207;28;20465;-62
2024/02/10 02:15:30;;;;;;;6.20;4.77;;;10.00;99.90;;;;;;5119257;28;20911;-62
2024/02/10 02:18:02;;;;;;;5.53;4.90;;;10.00;99.90;;;;;;5118791;28;20455;-62
2024/02/10 02:20:29;;;;;;;6.10;4.93;;;10.00;99.90;;;;;;5118992;28;20478;-62
2024/02/10 02:23:00;;;;;;;6.70;5.10;;;10.00;99.90;;;;;;5118341;28;20467;-62
2024/02/10 02:25:27;;;;;;;6.13;4.43;;;10.00;99.90;;;;;;5118503;28;20487;-62
2024/02/10 02:27:58;;;;;;;6.13;4.80;;;10.00;99.90;;;;;;5118330;28;20455;-62
2024/02/10 02:30:25;;;;;;;6.03;5.30;;;10.00;99.90;;;;;;5118895;28;20793;-62
2024/02/10 02:32:52;;;;;;;6.03;4.73;;;10.00;99.90;;;;;;5118613;28;20464;-62
2024/02/10 02:35:20;;;;;;;5.33;4.80;;;10.00;99.90;;;;;;5118722;28;20463;-62
2024/02/10 02:37:47;;;;;;;5.90;4.57;;;10.00;99.90;;;;;;5118964;28;20769;-62
2024/02/10 02:40:17;;;;;;;5.33;4.30;;;10.00;99.90;;;;;;5118306;28;20464;-62
2024/02/10 02:42:45;;;;;;;7.27;5.07;;;9.90;99.90;;;;;;5118337;28;20468;-63
2024/02/10 02:45:13;;;;;;;4.90;4.40;;;9.90;99.90;;;;;;5118227;28;20466;-62
2024/02/10 02:47:40;;;;;;;6.27;5.63;;;10.00;99.90;;;;;;5118798;28;20459;-62
2024/02/10 02:50:09;;;;;;;4.40;4.00;;;10.00;99.90;;;;;;5118556;28;20738;-62
2024/02/10 02:52:37;;;;;;;5.50;5.00;;;9.90;99.90;;;;;;5118405;28;20455;-63
2024/02/10 02:55:08;;;;;;;6.97;4.37;;;10.00;99.90;;;;;;5118161;28;20460;-62
2024/02/10 02:57:39;;;;;;;7.77;5.10;;;10.00;99.90;;;;;;5118405;28;20459;-62
2024/02/10 03:00:08;;;;;;;7.00;4.70;;;9.90;99.90;;;;;;5118183;28;20455;-63
2024/02/10 03:02:38;;;;;;;5.40;4.60;;;9.90;99.90;;;;;;5118285;28;20509;-62
2024/02/10 03:05:06;;;;;;;5.43;4.07;;;9.90;99.90;;;;;;5118091;28;20818;-62
2024/02/10 03:07:33;;;;;;;6.00;4.50;;;9.90;99.90;;;;;;5117795;28;20451;-63
2024/02/10 03:10:01;;;;;;;6.70;4.60;;;9.90;99.90;;;;;;5117761;28;20504;-63
2024/02/10 03:12:31;;;;;;;7.10;4.77;;;9.90;99.90;;;;;;5117851;28;20945;-63
2024/02/10 03:15:00;;;;;;;6.43;4.57;;;9.90;99.90;;;;;;5118164;28;20455;-63
2024/02/10 03:17:30;;;;;;;4.50;4.00;;;9.90;99.90;;;;;;5117935;28;20544;-63
2024/02/10 03:19:58;;;;;;;4.50;3.80;;;9.90;99.90;;;;;;5117596;28;20474;-63
2024/02/10 03:22:25;;;;;;;7.70;4.63;;;9.90;99.90;;;;;;5118023;28;20546;-63
2024/02/10 03:24:54;;;;;;;5.70;4.10;;;9.90;99.90;;;;;;5117402;28;20976;-62
2024/02/10 03:27:21;;;;;;;4.70;4.03;;;9.90;99.90;;;;;;5118174;28;20461;-62
2024/02/10 03:29:49;;;;;;;4.40;4.00;;;9.90;99.90;;;;;;5117858;28;20487;-63
2024/02/10 03:32:18;;;;;;;5.87;4.80;;;9.90;99.90;;;;;;5117478;28;20465;-63
2024/02/10 03:34:45;;;;;;;9.93;4.53;;;9.80;99.90;;;;;;5117597;28;20436;-63
2024/02/10 03:37:12;;;;;;;5.00;4.00;;;9.70;99.90;;;;;;5117651;28;20553;-63
2024/02/10 03:39:40;;;;;;;6.80;4.33;;;9.70;99.90;;;;;;5118037;28;20459;-62
2024/02/10 03:42:07;;;;;;;4.80;4.23;;;9.60;99.90;;;;;;5117861;28;20873;-63
2024/02/10 03:44:35;;;;;;;8.27;6.20;;;9.60;99.90;;;;;;5117453;28;20792;-63
2024/02/10 03:47:02;;;;;;;7.50;4.80;;;9.60;99.90;;;;;;5117898;28;20498;-63
2024/02/10 03:49:31;;;;;;;5.67;4.27;;;9.60;99.90;;;;;;5117748;28;20495;-63
2024/02/10 03:51:58;;;;;;;7.00;4.90;;;9.60;99.90;;;;;;5117774;28;20538;-63
2024/02/10 03:54:25;;;;;;;6.43;4.80;;;9.50;99.90;;;;;;5117481;28;20495;-63
2024/02/10 03:56:52;;;;;;;5.20;4.70;;;9.50;99.90;;;;;;5117394;28;20531;-63
2024/02/10 03:59:20;;;;;;;6.70;5.43;;;9.50;99.90;;;;;;5117972;28;20819;-62
2024/02/10 04:01:47;;;;;;;5.30;4.80;;;9.50;99.90;;;;;;5118109;28;20463;-63
2024/02/10 04:04:14;;;;;;;6.97;4.43;;;9.40;99.90;;;;;;5117147;28;20491;-63
2024/02/10 04:06:43;;;;;;;6.00;5.10;;;9.40;99.90;;;;;;5117414;28;20727;-63
2024/02/10 04:09:10;;;;;;;5.57;4.97;;;9.40;99.90;;;;;;5117662;28;20459;-63
2024/02/10 04:11:38;;;;;;;6.77;5.70;;;9.40;99.90;;;;;;5117046;28;20735;-63
2024/02/10 04:14:05;;;;;;;9.10;5.80;;;9.40;99.90;;;;;;5117033;28;20467;-63
2024/02/10 04:16:33;;;;;;;6.67;5.30;;;9.40;99.90;;;;;;5117064;28;20540;-62
2024/02/10 04:19:02;;;;;;;7.67;4.90;;;9.40;99.90;;;;;;5117544;28;20470;-63
2024/02/10 04:21:29;;;;;;;6.70;5.97;;;9.40;99.90;;;;;;5117336;28;20466;-62
2024/02/10 04:23:58;;;;;;;7.53;5.20;;;9.40;99.90;;;;;;5116978;28;20456;-62
2024/02/10 04:26:25;;;;;;;5.67;5.07;;;9.30;99.90;;;;;;5120163;28;20475;-63
2024/02/10 04:28:52;;;;;;;5.87;5.27;;;9.30;99.90;;;;;;5121310;28;20558;-63
2024/02/10 04:31:21;;;;;;;9.83;5.90;;;9.40;99.90;;;;;;5121255;28;20550;-62
2024/02/10 04:33:52;;;;;;;11.87;6.10;;;9.30;99.90;;;;;;5120575;28;20455;-63
2024/02/10 04:36:20;;;;;;;7.73;5.07;;;9.30;99.90;;;;;;5121186;27;20506;-63
2024/02/10 04:38:47;;;;;;;5.77;5.27;;;9.20;99.90;;;;;;5121133;28;20490;-63
2024/02/10 04:41:18;;;;;;;6.30;5.70;;;9.20;99.90;;;;;;5120933;28;20457;-63
2024/02/10 04:43:45;;;;;;;7.00;5.90;;;9.20;99.90;;;;;;5121100;28;20455;-63
2024/02/10 04:46:14;;;;;;;8.03;6.13;;;9.20;99.90;;;;;;5120719;28;20483;-62
2024/02/10 04:48:41;;;;;;;8.30;6.70;;;9.20;99.90;;;;;;5120599;28;20502;-63
2024/02/10 04:51:08;;;;;;;7.33;6.37;;;9.20;99.90;;;;;;5120890;28;20484;-62
2024/02/10 04:53:36;;;;;;;9.63;7.37;;;9.20;99.90;;;;;;5121206;28;20482;-63
2024/02/10 04:56:03;;;;;;;7.97;7.13;;;9.20;99.90;;;;;;5120924;28;20461;-63
2024/02/10 04:58:32;;;;;;;7.93;7.13;;;9.10;99.90;;;;;;5120752;28;20485;-63
2024/02/10 05:00:59;;;;;;;11.17;6.50;;;9.10;99.90;;;;;;5120271;28;20550;-63
2024/02/10 05:03:26;;;;;;;7.10;6.27;;;9.00;99.90;;;;;;5120585;28;20931;-64
2024/02/10 05:05:53;;;;;;;8.63;6.60;;;9.00;99.90;;;;;;5120349;28;20960;-63
2024/02/10 05:08:20;;;;;;;8.70;7.63;;;9.00;99.90;;;;;;5120345;28;20466;-63
2024/02/10 05:10:48;;;;;;;8.50;7.03;;;9.00;99.90;;;;;;5120394;28;20546;-63
2024/02/10 05:13:15;;;;;;;7.20;6.50;;;9.00;99.90;;;;;;5120358;28;20456;-63
2024/02/10 05:15:44;;;;;;;6.87;6.17;;;9.00;99.90;;;;;;5120315;28;20970;-62
2024/02/10 05:18:11;;;;;;;9.00;6.53;;;8.90;99.90;;;;;;5120521;28;20559;-63
2024/02/10 05:20:40;;;;;;;7.87;7.07;;;8.90;99.90;;;;;;5120470;28;20459;-63
2024/02/10 05:23:11;;;;;;;8.20;6.60;;;8.90;99.90;;;;;;5120121;28;20434;-63
2024/02/10 05:25:38;;;;;;;7.67;6.67;;;8.90;99.90;;;;;;5119832;28;20529;-62
2024/02/10 05:28:08;;;;;;;9.23;8.07;;;8.90;99.90;;;;;;5119855;28;20478;-63
2024/02/10 05:30:35;;;;;;;8.03;7.17;;;8.90;99.90;;;;;;5120268;28;20960;-63
2024/02/10 05:33:04;;;;;;;11.03;7.47;;;8.90;99.90;;;;;;5119833;28;20456;-63
2024/02/10 05:35:32;;;;;;;8.27;7.10;;;8.90;99.90;;;;;;5119422;28;20456;-63
2024/02/10 05:38:02;;;;;;;8.27;7.40;;;8.90;99.90;;;;;;5119661;28;20521;-63
2024/02/10 05:40:30;;;;;;;8.43;7.47;;;8.80;99.90;;;;;;5119545;28;20464;-63
2024/02/10 05:42:58;;;;;;;7.50;6.33;;;8.80;99.90;;;;;;5119406;28;20466;-63
2024/02/10 05:45:28;;;;;;;8.23;7.30;;;8.80;99.90;;;;;;5119709;28;20459;-63
2024/02/10 05:47:55;;;;;;;8.17;6.57;;;8.70;99.90;;;;;;5119487;28;20455;-63
2024/02/10 05:50:27;;;;;;;7.87;6.77;;;8.70;99.90;;;;;;5119295;28;20498;-63
2024/02/10 05:52:57;;;;;;;8.10;6.00;;;8.70;99.90;;;;;;5119638;28;20439;-63
2024/02/10 05:55:26;;;;;;;8.30;7.00;;;8.70;99.90;;;;;;5119556;28;20558;-63
2024/02/10 05:57:55;;;;;;;8.87;7.93;;;8.70;99.90;;;;;;5118825;28;20492;-63
2024/02/10 06:00:23;;;;;;;8.27;7.37;;;8.80;99.90;;;;;;5117963;28;20675;-63
2024/02/10 06:02:50;;;;;;;8.23;7.03;;;8.80;99.90;;;;;;5117498;28;20498;-63
2024/02/10 06:05:18;;;;;;;8.30;7.20;;;8.80;99.90;;;;;;5118313;28;20549;-63
2024/02/10 06:07:48;;;;;;;8.70;7.60;;;8.70;99.90;;;;;;5118674;28;20451;-63
2024/02/10 06:10:16;;;;;;;8.30;7.50;;;8.70;99.90;;;;;;5118381;28;20741;-63
2024/02/10 06:12:48;;;;;;;8.03;7.23;;;8.70;99.90;;;;;;5118074;28;20517;-63
2024/02/10 06:15:17;;;;;;;9.00;7.50;;;8.70;99.90;;;;;;5118921;28;20466;-63
2024/02/10 06:17:46;;;;;;;8.90;7.63;;;8.70;99.90;;;;;;5119118;28;20578;-63
2024/02/10 06:20:14;;;;;;;8.10;7.30;;;8.70;99.90;;;;;;5119396;28;20455;-63
2024/02/10 06:22:42;;;;;;;8.20;7.37;;;8.80;99.90;;;;;;5118837;28;20463;-64
2024/02/10 06:25:13;;;;;;;8.27;7.33;;;8.80;99.90;;;;;;5118711;28;20522;-63
2024/02/10 06:27:42;;;;;;;8.63;7.73;;;8.90;99.90;;;;;;5118720;28;20463;-63
2024/02/10 06:30:13;;;;;;;8.93;8.00;;;8.90;99.90;;;;;;5118222;28;20573;-63
2024/02/10 06:32:41;;;;;;;8.20;7.40;;;8.80;99.90;;;;;;5118577;28;20524;-62
2024/02/10 06:35:09;;;;;;;9.70;8.33;;;8.80;99.90;;;;;;5118061;28;20456;-64
2024/02/10 06:37:37;;;;;;;9.27;8.37;;;8.80;99.90;;;;;;5116912;28;20831;-64
2024/02/10 06:40:07;;;;;;;9.20;8.30;;;8.80;99.90;;;;;;5118113;28;20561;-64
2024/02/10 06:42:36;;;;;;;8.70;7.80;;;8.70;99.90;;;;;;5118468;28;20434;-63
2024/02/10 06:45:07;;;;;;;9.80;7.03;;;8.70;99.90;;;;;;5118439;28;20499;-63
2024/02/10 06:47:35;;;;;;;10.13;8.33;;;8.70;99.90;;;;;;5118063;28;20434;-63
2024/02/10 06:50:04;;;;;;;9.00;8.10;;;8.70;99.90;;;;;;5117955;28;20465;-64
2024/02/10 06:52:34;;;;;;;8.77;7.80;;;8.80;99.90;;;;;;5118262;28;20897;-64
2024/02/10 06:55:01;;;;;;;9.57;7.70;;;8.80;99.90;;;;;;5118644;28;20434;-64
2024/02/10 06:57:29;;;;;;;8.90;7.87;;;8.80;99.90;;;;;;5118107;28;21072;-63
2024/02/10 06:59:57;;;;;;;9.37;7.13;;;8.70;99.90;;;;;;5117856;28;20558;-64
2024/02/10 07:02:25;;;;;;;9.60;7.30;;;8.70;99.90;;;;;;5117960;28;20782;-63
2024/02/10 07:04:55;;;;;;;7.97;7.17;;;8.70;99.90;;;;;;5118343;28;20891;-63
2024/02/10 07:07:23;;;;;;;9.67;8.00;;;8.70;99.90;;;;;;5118123;28;20453;-63
2024/02/10 07:09:49;;;;;;;9.40;7.90;;;8.70;99.90;;;;;;5118193;28;20463;-64
2024/02/10 07:12:17;;;;;;;8.33;7.00;;;8.80;99.90;;;;;;5118174;28;20455;-64
2024/02/10 07:14:45;;;;;;;8.87;7.73;;;8.80;99.90;;;;;;5117739;28;20456;-63
2024/02/10 07:17:16;;;;;;;9.27;7.80;;;8.80;99.90;;;;;;5118214;28;20916;-63
2024/02/10 07:19:49;;;;;;;7.73;6.93;;;8.70;99.90;;;;;;5118189;28;20463;-64
2024/02/10 07:22:17;;;;;;;9.10;7.50;;;8.70;99.90;;;;;;5117616;28;20900;-64
2024/02/10 07:24:46;;;;;;;9.90;8.60;;;8.80;99.90;;;;;;5117434;28;20462;-63
2024/02/10 07:27:17;;;;;;;9.27;7.40;;;8.80;99.90;;;;;;5117902;28;20477;-64
2024/02/10 07:29:45;;;;;;;10.17;7.90;;;8.90;99.90;;;;;;5118091;28;20459;-64
2024/02/10 07:32:14;;;;;;;9.13;7.40;;;8.90;99.90;;;;;;5117504;28;20459;-63
2024/02/10 07:34:42;;;;;;;9.30;7.67;;;8.90;99.90;;;;;;5116388;28;20840;-63
2024/02/10 07:37:11;;;;;;;8.20;6.77;;;8.90;99.90;;;;;;5117693;28;20496;-64
2024/02/10 07:39:40;;;;;;;9.13;7.50;;;8.90;99.90;;;;;;5117437;28;20562;-63
2024/02/10 07:42:10;;;;;;;8.10;7.30;;;8.90;99.90;;;;;;5117006;28;20456;-64
2024/02/10 07:44:37;;;;;;;10.83;8.57;;;8.90;99.90;;;;;;5116348;28;20464;-63
2024/02/10 07:47:05;;;;;;;8.70;6.63;;;9.00;99.90;;;;;;5116649;28;20790;-64
2024/02/10 07:49:34;;;;;;;11.00;8.00;;;9.00;99.90;;;;;;5116577;28;20489;-65
2024/02/10 07:52:02;;;;;;;7.00;6.30;;;9.00;99.90;;;;;;5115016;28;20904;-64
2024/02/10 07:54:32;;;;;;;8.53;7.50;;;9.00;99.90;;;;;;5114220;28;20459;-64
2024/02/10 07:57:00;;;;;;;8.40;7.50;;;9.10;99.90;;;;;;5115557;28;20947;-63
2024/02/10 07:59:29;;;;;;;7.97;7.17;;;9.10;99.90;;;;;;5116908;28;20833;-65
2024/02/10 08:01:56;;;;;;;7.20;6.50;;;9.10;99.90;;;;;;5118399;28;20991;-64
2024/02/10 08:04:23;;;;;;;6.87;6.17;;;9.30;99.90;;;;;;5116902;28;20491;-64
2024/02/10 08:06:52;;;;;;;8.47;6.93;;;9.30;99.90;;;;;;5118513;28;20463;-64
2024/02/10 08:09:20;;;;;;;8.70;6.70;;;9.40;99.90;;;;;;5118972;28;20457;-64
2024/02/10 08:11:47;;;;;;;7.83;7.03;;;9.50;99.90;;;;;;5118914;28;20566;-63
2024/02/10 08:14:18;;;;;;;9.37;6.70;;;9.60;99.90;;;;;;5120252;28;20455;-63
2024/02/10 08:16:49;;;;;;;7.90;7.10;;;9.70;99.90;;;;;;5121500;28;20460;-63
2024/02/10 08:19:18;;;;;;;7.80;6.80;;;9.80;99.90;;;;;;5121364;28;20492;-64
2024/02/10 08:21:45;;;;;;;7.50;6.37;;;9.90;99.90;;;;;;5120798;28;20455;-63
2024/02/10 08:24:17;;;;;;;7.70;6.90;;;10.10;99.90;;;;;;5120828;27;20462;-63
2024/02/10 08:26:49;;;;;;;5.90;5.30;;;10.10;99.90;;;;;;5120839;28;20505;-63
2024/02/10 08:29:16;;;;;;;6.37;5.77;;;10.30;99.90;;;;;;5120917;28;20447;-64
2024/02/10 08:31:44;;;;;;;6.53;5.87;;;10.40;99.90;;;;;;5121192;28;20872;-62
2024/02/10 08:34:11;;;;;;;6.53;5.13;;;10.40;99.90;;;;;;5121157;28;20795;-63
2024/02/10 08:36:39;;;;;;;7.00;5.63;;;10.50;99.90;;;;;;5120299;28;20451;-62
2024/02/10 08:39:06;;;;;;;5.90;5.30;;;10.50;99.90;;;;;;5120915;28;20537;-63
2024/02/10 08:41:35;;;;;;;7.60;6.40;;;10.50;99.90;;;;;;5120340;28;20793;-63
2024/02/10 08:44:03;;;;;;;5.50;4.80;;;10.60;99.90;;;;;;5120725;28;20459;-63
2024/02/10 08:46:30;;;;;;;8.00;5.80;;;10.50;99.90;;;;;;5121045;28;20459;-63
2024/02/10 08:48:58;;;;;;;7.90;5.30;;;10.70;99.90;;;;;;5120601;28;20455;-62
2024/02/10 08:51:27;;;;;;;5.60;4.50;;;10.80;99.90;;;;;;5120925;28;20566;-63
2024/02/10 08:53:56;;;;;;;6.00;4.87;;;10.70;99.90;;;;;;5120386;28;20896;-63
2024/02/10 08:56:32;;;;;;;7.13;5.27;;;10.70;99.90;;;;;;5119358;27;20463;-63
2024/02/10 08:59:02;;;;;;;4.63;4.13;;;10.70;99.90;;;;;;5120015;28;20491;-63
2024/02/10 09:01:30;;;;;;;5.40;4.90;;;10.80;99.90;;;;;;5119753;28;20508;-63
2024/02/10 09:04:02;;;;;;;5.60;5.10;;;10.80;99.90;;;;;;5120104;28;20455;-63
2024/02/10 09:06:30;;;;;;;5.67;5.17;;;10.80;99.90;;;;;;5119371;27;20788;-62
2024/02/10 09:08:58;;;;;;;5.23;4.60;;;10.90;99.90;;;;;;5120346;28;20887;-62
2024/02/10 09:11:26;;;;;;;5.10;4.60;;;10.90;99.90;;;;;;5118800;28;20459;-63
2024/02/10 09:13:55;;;;;;;6.00;4.97;;;11.00;99.90;;;;;;5119596;28;20466;-62
2024/02/10 09:16:26;;;;;;;7.00;5.03;;;11.10;99.90;;;;;;5118444;28;20455;-63
2024/02/10 09:18:53;;;;;;;5.07;4.57;;;11.20;99.90;;;;;;5118811;28;20495;-63
2024/02/10 09:21:21;;;;;;;5.53;4.10;;;11.30;99.90;;;;;;5118917;28;20566;-63
2024/02/10 09:23:49;;;;;;;5.97;4.70;;;11.40;99.90;;;;;;5118672;28;20889;-62
2024/02/10 09:26:17;;;;;;;5.73;4.90;;;11.40;99.90;;;;;;5118749;28;20454;-62
2024/02/10 09:28:46;;;;;;;4.90;4.40;;;11.40;99.90;;;;;;5118114;28;20889;-63
2024/02/10 09:31:14;;;;;;;4.20;3.73;;;11.50;99.90;;;;;;5120008;28;20520;-62
2024/02/10 09:33:44;;;;;;;4.80;4.23;;;11.50;99.90;;;;;;5120224;28;20460;-62
2024/02/10 09:36:12;;;;;;;4.87;4.10;;;11.70;99.90;;;;;;5119523;28;20494;-62
2024/02/10 09:38:41;;;;;;;5.63;4.30;;;11.80;99.90;;;;;;5120008;28;20491;-62
2024/02/10 09:41:10;;;;;;;4.47;4.00;;;11.90;99.90;;;;;;5119336;28;20892;-62
2024/02/10 09:43:38;;;;;;;4.80;3.80;;;12.00;99.90;;;;;;5119324;28;20487;-62
2024/02/10 09:46:08;;;;;;;4.10;3.70;;;12.20;99.90;;;;;;5119607;28;20466;-62
2024/02/10 09:48:40;;;;;;;6.70;4.33;;;12.40;99.90;;;;;;5118595;28;20451;-63
2024/02/10 09:51:10;;;;;;;4.40;3.90;;;12.50;99.90;;;;;;5119603;28;20557;-61
2024/02/10 09:53:40;;;;;;;4.90;4.37;;;12.50;99.90;;;;;;5119596;28;20940;-61
2024/02/10 09:56:10;;;;;;;5.43;4.00;;;12.30;99.90;;;;;;5119393;28;20463;-61
2024/02/10 09:58:41;;;;;;;4.67;3.77;;;12.40;99.90;;;;;;5119141;28;20487;-61
2024/02/10 10:01:10;;;;;;;3.63;3.33;;;12.40;99.90;;;;;;5119626;28;20495;-62
2024/02/10 10:03:38;;;;;;;4.03;3.60;;;12.30;99.90;;;;;;5119654;28;20452;-62
2024/02/10 10:06:09;;;;;;;4.50;3.33;;;12.40;99.90;;;;;;5119248;28;20455;-62
2024/02/10 10:08:39;;;;;;;6.13;3.40;;;12.20;99.90;;;;;;5119176;28;20430;-61
2024/02/10 10:11:07;;;;;;;4.00;3.07;;;12.20;94.80;;;;;;5119722;28;20466;-62
2024/02/10 10:13:36;;;;;;;4.50;3.67;;;12.20;99.90;;;;;;5118934;28;20953;-62
2024/02/10 10:16:05;;;;;;;4.00;3.40;;;12.30;1.00;;;;;;5118974;28;20459;-61
2024/02/10 10:18:35;;;;;;;3.93;3.23;;;12.40;1.00;;;;;;5118853;28;20538;-62
2024/02/10 10:21:05;;;;;;;4.80;3.20;;;12.50;1.00;;;;;;5119354;27;20459;-62
2024/02/10 10:23:34;;;;;;;5.20;3.33;;;12.40;99.90;;;;;;5119165;28;20467;-62
2024/02/10 10:26:05;;;;;;;4.10;3.50;;;12.70;1.00;;;;;;5118337;28;20574;-61
2024/02/10 10:28:33;;;;;;;3.90;3.30;;;12.80;99.90;;;;;;5118261;28;20506;-61
2024/02/10 10:31:02;;;;;;;5.07;3.43;;;13.10;99.90;;;;;;5119025;28;20559;-61
2024/02/10 10:33:30;;;;;;;3.77;3.30;;;13.20;1.00;;;;;;5118540;28;20508;-61
2024/02/10 10:36:00;;;;;;;3.80;3.07;;;13.20;99.90;;;;;;5118245;28;20451;-61
2024/02/10 10:38:31;;;;;;;4.13;3.10;;;13.20;99.90;;;;;;5118590;28;20564;-61
2024/02/10 10:40:59;;;;;;;5.33;3.20;;;13.50;99.90;;;;;;5118786;28;20455;-61
2024/02/10 10:43:31;;;;;;;4.10;3.40;;;13.60;99.90;;;;;;5118674;28;20872;-61
2024/02/10 10:45:59;;;;;;;4.47;3.20;;;13.70;99.90;;;;;;5118297;28;20903;-61
2024/02/10 10:48:27;;;;;;;3.40;2.70;;;13.80;59.90;;;;;;5118477;28;20455;-61
2024/02/10 10:50:57;;;;;;;3.97;2.97;;;13.80;15.20;;;;;;5118767;28;20504;-61
2024/02/10 10:53:28;;;;;;;4.30;3.10;;;14.00;25.00;;;;;;5118425;28;20751;-62
2024/02/10 10:56:01;;;;;;;4.00;2.50;;;13.90;1.00;;;;;;5117744;28;20760;-61
2024/02/10 10:58:38;;;;;;;4.20;2.77;;;14.20;22.00;;;;;;5117623;28;20511;-61
2024/02/10 11:01:07;;;;;;;3.50;3.20;;;14.40;3.40;;;;;;5118286;28;20947;-61
2024/02/10 11:03:34;;;;;;;3.23;2.80;;;14.50;1.00;;;;;;5118230;28;20462;-61
2024/02/10 11:06:11;;;;;;;3.57;2.90;;;14.70;1.00;;;;;;5117993;28;20560;-62
2024/02/10 11:08:41;;;;;;;3.70;3.30;;;14.80;1.00;;;;;;5118203;28;20451;-61
2024/02/10 11:11:10;;;;;;;3.30;3.00;;;14.90;1.00;;;;;;5117315;28;20900;-62
2024/02/10 11:13:39;;;;;;;3.53;2.80;;;15.00;1.00;;;;;;5116525;28;20455;-61
2024/02/10 11:16:12;;;;;;;3.13;2.37;;;15.00;1.00;;;;;;5116768;28;20455;-62
2024/02/10 11:18:43;;;;;;;3.50;2.60;;;15.10;1.00;;;;;;5116520;28;20466;-63
2024/02/10 11:21:15;;;;;;;3.20;2.60;;;15.30;1.00;;;;;;5117334;28;20463;-62
2024/02/10 11:23:42;;;;;;;3.50;2.50;;;15.40;1.00;;;;;;5116870;28;20951;-62
2024/02/10 11:26:12;;;;;;;3.20;2.23;;;15.50;1.00;;;;;;5116795;28;20607;-62
2024/02/10 11:28:41;;;;;;;3.27;2.47;;;15.50;1.00;;;;;;5117562;28;20430;-62
2024/02/10 11:31:12;;;;;;;3.20;2.47;;;15.50;1.00;;;;;;5117691;28;20502;-62
2024/02/10 11:33:40;;;;;;;3.67;2.53;;;15.70;1.00;;;;;;5119555;28;20458;-62
2024/02/10 11:36:10;;;;;;;4.33;2.17;;;15.60;1.00;;;;;;5130830;27;20593;-62
2024/02/10 11:38:39;;;;;;;3.20;2.70;;;15.50;1.00;;;;;;5115060;28;20487;-62
2024/02/10 11:41:07;;;;;;;3.27;2.30;;;15.50;1.00;;;;;;5116130;28;20935;-62
2024/02/10 11:43:35;;;;;;;3.30;2.47;;;15.60;1.00;;;;;;5115244;28;21387;-62
2024/02/10 11:46:04;;;;;;;3.43;3.03;;;15.80;1.00;;;;;;5115906;28;20456;-62
2024/02/10 11:48:31;;;;;;;5.43;2.90;;;16.00;1.00;;;;;;5116515;28;20475;-62
2024/02/10 11:50:59;;;;;;;3.13;2.80;;;16.10;1.00;;;;;;5115860;28;20512;-62
2024/02/10 11:53:27;;;;;;;3.10;2.70;;;16.30;1.00;;;;;;5117631;28;20797;-62
2024/02/10 11:55:55;;;;;;;2.97;2.20;;;16.30;1.00;;;;;;5116361;28;20457;-62
2024/02/10 11:58:25;;;;;;;3.30;2.77;;;16.30;1.00;;;;;;5112799;28;20935;-62
2024/02/10 12:00:53;;;;;;;2.80;2.50;;;16.20;1.00;;;;;;5095880;28;20467;-62
2024/02/10 12:03:25;;;;;;;4.57;2.87;;;16.10;1.00;;;;;;5097132;28;20438;-62
2024/02/10 12:05:57;;;;;;;2.73;2.53;;;15.90;1.00;;;;;;5096536;28;20496;-62
2024/02/10 12:08:25;;;;;;;3.00;2.70;;;15.90;1.00;;;;;;5096105;28;20460;-62
2024/02/10 12:10:52;;;;;;;4.30;2.27;;;15.80;1.00;;;;;;5096623;28;20944;-62
2024/02/10 12:13:22;;;;;;;3.00;2.30;;;15.70;1.00;;;;;;5096995;28;20555;-62
2024/02/10 12:15:51;;;;;;;3.10;2.30;;;15.60;1.00;;;;;;5096710;28;20823;-62
2024/02/10 12:18:19;;;;;;;3.00;2.50;;;15.50;1.00;;;;;;5096551;28;20464;-62
2024/02/10 12:20:52;;;;;;;2.70;2.50;;;15.60;1.00;;;;;;5096764;28;20460;-62
2024/02/10 12:23:20;;;;;;;2.87;2.20;;;15.50;1.00;;;;;;5097055;28;20496;-62
2024/02/10 12:25:48;;;;;;;3.00;2.20;;;15.30;1.00;;;;;;5099026;28;20491;-62
2024/02/10 12:28:15;;;;;;;2.90;2.40;;;15.40;1.00;;;;;;5113130;28;20856;-62
2024/02/10 12:30:43;;;;;;;3.00;2.70;;;15.70;1.00;;;;;;5107311;28;20938;-62
2024/02/10 12:33:11;;;;;;;3.30;2.80;;;15.50;1.00;;;;;;5109771;28;20953;-62
2024/02/10 12:35:40;;;;;;;2.80;2.40;;;15.50;1.00;;;;;;5116809;28;20550;-62
2024/02/10 12:38:09;;;;;;;3.03;2.73;;;15.60;1.00;;;;;;5117380;28;20466;-62
2024/02/10 12:40:36;;;;;;;2.60;2.30;;;15.80;1.00;;;;;;5116869;28;20459;-62
2024/02/10 12:43:04;;;;;;;3.00;2.60;;;15.70;1.00;;;;;;5117255;28;20516;-63
2024/02/10 12:45:37;;;;;;;3.90;2.50;;;15.90;1.00;;;;;;5117204;28;20864;-61
2024/02/10 12:48:05;;;;;;;2.80;2.00;;;16.00;1.00;;;;;;5120565;28;20466;-62
2024/02/10 12:50:33;;;;;;;2.87;2.03;;;16.10;1.00;;;;;;5120032;28;20509;-63
2024/02/10 12:53:01;;;;;;;3.43;2.80;;;16.20;1.00;;;;;;5120588;28;20531;-61
2024/02/10 12:55:30;;;;;;;2.87;2.30;;;16.20;1.00;;;;;;5120874;28;20512;-62
2024/02/10 12:57:58;;;;;;;2.70;2.07;;;16.10;1.00;;;;;;5120483;28;20461;-61
2024/02/10 13:00:27;;;;;;;3.67;2.30;;;15.90;1.00;;;;;;5120406;28;20494;-62